Sandy Lake, Pennsylvania
Current Conditions -  °F | °C
As of 3:15 PM on Monday 24 Nov 2014 (Local Time) from KFKL Reporting Station
Broken Clouds Broken Clouds  
Wind Chill: 61°   Ceiling: 6500
Heat Index: 61°   Visibility: 10mi
Dew Point: 43°   Wind: 23mph
Humidity: 52%   Direction: 220°SW
Pressure: 29.44"   Gusts: 32mph
Location:  41.35°N, 80.08°W
Report Text: KFKL 242015Z AUTO 22020G28KT 10SM FEW050 BKN065 BKN085 16/06 A2944 RMK AO1
Loading
Personal Weather Stations






























Interactive Weather Map New forecast layout! Learn more

10-Day Weather Forecast

Advertisements
Track Severe Weather on mobile